sensor_id;sensor_type;location;lat;lon;timestamp;P1;durP1;ratioP1;P2;durP2;ratioP2
32445;SDS011;18899;50.748;7.102;2023-02-28T00:02:19;11.95;;;3.70;;
32445;SDS011;18899;50.748;7.102;2023-02-28T00:04:45;7.72;;;3.30;;
32445;SDS011;18899;50.748;7.102;2023-02-28T00:07:17;7.32;;;3.05;;
32445;SDS011;18899;50.748;7.102;2023-02-28T00:09:43;13.18;;;3.40;;
32445;SDS011;18899;50.748;7.102;2023-02-28T00:12:09;8.93;;;3.42;;
32445;SDS011;18899;50.748;7.102;2023-02-28T00:14:40;11.20;;;3.22;;
32445;SDS011;18899;50.748;7.102;2023-02-28T00:17:05;9.80;;;3.10;;
32445;SDS011;18899;50.748;7.102;2023-02-28T00:19:30;7.00;;;3.00;;
32445;SDS011;18899;50.748;7.102;2023-02-28T00:21:56;8.40;;;3.00;;
32445;SDS011;18899;50.748;7.102;2023-02-28T00:24:21;6.95;;;2.80;;
32445;SDS011;18899;50.748;7.102;2023-02-28T00:26:47;10.93;;;3.45;;
32445;SDS011;18899;50.748;7.102;2023-02-28T00:29:12;8.07;;;3.10;;
32445;SDS011;18899;50.748;7.102;2023-02-28T00:31:38;7.75;;;3.17;;
32445;SDS011;18899;50.748;7.102;2023-02-28T00:34:03;12.98;;;3.42;;
32445;SDS011;18899;50.748;7.102;2023-02-28T00:36:29;10.10;;;3.03;;
32445;SDS011;18899;50.748;7.102;2023-02-28T00:38:54;6.72;;;2.83;;
32445;SDS011;18899;50.748;7.102;2023-02-28T00:41:20;8.07;;;3.15;;
32445;SDS011;18899;50.748;7.102;2023-02-28T00:43:45;10.48;;;2.70;;
32445;SDS011;18899;50.748;7.102;2023-02-28T00:46:11;10.35;;;3.58;;
32445;SDS011;18899;50.748;7.102;2023-02-28T00:48:36;7.80;;;3.42;;
32445;SDS011;18899;50.748;7.102;2023-02-28T00:51:02;5.43;;;2.88;;
32445;SDS011;18899;50.748;7.102;2023-02-28T00:53:28;6.13;;;2.90;;
32445;SDS011;18899;50.748;7.102;2023-02-28T00:55:54;6.45;;;3.13;;
32445;SDS011;18899;50.748;7.102;2023-02-28T00:58:20;9.35;;;3.22;;
32445;SDS011;18899;50.748;7.102;2023-02-28T01:00:45;9.27;;;3.10;;
32445;SDS011;18899;50.748;7.102;2023-02-28T01:03:17;7.60;;;2.85;;
32445;SDS011;18899;50.748;7.102;2023-02-28T01:05:43;5.80;;;2.80;;
32445;SDS011;18899;50.748;7.102;2023-02-28T01:08:09;6.28;;;2.70;;
32445;SDS011;18899;50.748;7.102;2023-02-28T01:10:35;7.55;;;2.97;;
32445;SDS011;18899;50.748;7.102;2023-02-28T01:13:02;9.32;;;2.83;;
32445;SDS011;18899;50.748;7.102;2023-02-28T01:15:27;8.30;;;2.63;;
32445;SDS011;18899;50.748;7.102;2023-02-28T01:17:53;7.90;;;2.75;;
32445;SDS011;18899;50.748;7.102;2023-02-28T01:20:19;7.00;;;3.10;;
32445;SDS011;18899;50.748;7.102;2023-02-28T01:22:44;7.28;;;3.17;;
32445;SDS011;18899;50.748;7.102;2023-02-28T01:25:10;6.00;;;2.58;;
32445;SDS011;18899;50.748;7.102;2023-02-28T01:27:36;7.07;;;2.72;;
32445;SDS011;18899;50.748;7.102;2023-02-28T01:30:02;4.20;;;2.60;;
32445;SDS011;18899;50.748;7.102;2023-02-28T01:32:28;8.23;;;2.63;;
32445;SDS011;18899;50.748;7.102;2023-02-28T01:34:53;6.05;;;2.80;;
32445;SDS011;18899;50.748;7.102;2023-02-28T01:37:19;8.30;;;2.63;;
32445;SDS011;18899;50.748;7.102;2023-02-28T01:39:45;7.03;;;2.92;;
32445;SDS011;18899;50.748;7.102;2023-02-28T01:42:10;5.82;;;2.17;;
32445;SDS011;18899;50.748;7.102;2023-02-28T01:47:32;6.82;;;2.65;;
32445;SDS011;18899;50.748;7.102;2023-02-28T01:50:02;6.82;;;2.70;;
32445;SDS011;18899;50.748;7.102;2023-02-28T01:52:31;6.57;;;2.83;;
32445;SDS011;18899;50.748;7.102;2023-02-28T01:54:58;7.18;;;2.63;;
32445;SDS011;18899;50.748;7.102;2023-02-28T01:57:28;5.80;;;2.75;;
32445;SDS011;18899;50.748;7.102;2023-02-28T02:00:03;5.57;;;2.63;;
32445;SDS011;18899;50.748;7.102;2023-02-28T02:02:32;7.93;;;2.42;;
32445;SDS011;18899;50.748;7.102;2023-02-28T02:07:37;6.60;;;2.75;;
32445;SDS011;18899;50.748;7.102;2023-02-28T02:10:10;5.72;;;2.75;;
32445;SDS011;18899;50.748;7.102;2023-02-28T02:15:26;8.32;;;2.63;;
32445;SDS011;18899;50.748;7.102;2023-02-28T02:18:05;6.03;;;2.55;;
32445;SDS011;18899;50.748;7.102;2023-02-28T02:21:10;7.82;;;2.55;;
32445;SDS011;18899;50.748;7.102;2023-02-28T02:34:37;6.82;;;2.88;;
32445;SDS011;18899;50.748;7.102;2023-02-28T02:37:27;14.73;;;2.63;;
32445;SDS011;18899;50.748;7.102;2023-02-28T02:45:32;7.05;;;2.75;;
32445;SDS011;18899;50.748;7.102;2023-02-28T02:48:08;7.07;;;2.55;;
32445;SDS011;18899;50.748;7.102;2023-02-28T02:50:38;7.30;;;2.70;;
32445;SDS011;18899;50.748;7.102;2023-02-28T02:53:11;4.60;;;2.13;;
32445;SDS011;18899;50.748;7.102;2023-02-28T02:55:40;4.57;;;2.20;;
32445;SDS011;18899;50.748;7.102;2023-02-28T02:58:10;10.63;;;2.75;;
32445;SDS011;18899;50.748;7.102;2023-02-28T03:00:48;8.68;;;2.20;;
32445;SDS011;18899;50.748;7.102;2023-02-28T03:03:18;9.65;;;2.25;;
32445;SDS011;18899;50.748;7.102;2023-02-28T03:05:54;7.18;;;2.30;;
32445;SDS011;18899;50.748;7.102;2023-02-28T03:08:25;6.30;;;2.38;;
32445;SDS011;18899;50.748;7.102;2023-02-28T03:10:52;7.78;;;2.88;;
32445;SDS011;18899;50.748;7.102;2023-02-28T03:18:49;5.80;;;2.40;;
32445;SDS011;18899;50.748;7.102;2023-02-28T03:21:22;7.03;;;2.55;;
32445;SDS011;18899;50.748;7.102;2023-02-28T03:24:11;8.52;;;2.28;;
32445;SDS011;18899;50.748;7.102;2023-02-28T03:26:43;5.50;;;2.60;;
32445;SDS011;18899;50.748;7.102;2023-02-28T03:29:20;11.07;;;2.70;;
32445;SDS011;18899;50.748;7.102;2023-02-28T03:31:58;5.15;;;2.20;;
32445;SDS011;18899;50.748;7.102;2023-02-28T03:36:57;7.43;;;2.58;;
32445;SDS011;18899;50.748;7.102;2023-02-28T03:39:36;5.72;;;2.08;;
32445;SDS011;18899;50.748;7.102;2023-02-28T03:42:16;6.75;;;2.53;;
32445;SDS011;18899;50.748;7.102;2023-02-28T03:44:46;4.38;;;2.28;;
32445;SDS011;18899;50.748;7.102;2023-02-28T03:47:23;7.65;;;2.28;;
32445;SDS011;18899;50.748;7.102;2023-02-28T03:52:45;5.05;;;2.25;;
32445;SDS011;18899;50.748;7.102;2023-02-28T03:55:15;5.88;;;2.15;;
32445;SDS011;18899;50.748;7.102;2023-02-28T04:00:25;9.60;;;2.50;;
32445;SDS011;18899;50.748;7.102;2023-02-28T04:03:05;8.68;;;2.42;;
32445;SDS011;18899;50.748;7.102;2023-02-28T04:05:31;7.47;;;2.38;;
32445;SDS011;18899;50.748;7.102;2023-02-28T04:08:04;6.35;;;2.47;;
32445;SDS011;18899;50.748;7.102;2023-02-28T04:10:32;9.00;;;2.38;;
32445;SDS011;18899;50.748;7.102;2023-02-28T04:12:57;7.43;;;2.28;;
32445;SDS011;18899;50.748;7.102;2023-02-28T04:15:23;7.55;;;2.80;;
32445;SDS011;18899;50.748;7.102;2023-02-28T04:17:49;6.10;;;2.45;;
32445;SDS011;18899;50.748;7.102;2023-02-28T04:20:15;3.50;;;2.25;;
32445;SDS011;18899;50.748;7.102;2023-02-28T04:22:41;5.60;;;2.35;;
32445;SDS011;18899;50.748;7.102;2023-02-28T04:25:07;7.85;;;2.78;;
32445;SDS011;18899;50.748;7.102;2023-02-28T04:27:33;7.50;;;2.63;;
32445;SDS011;18899;50.748;7.102;2023-02-28T04:29:58;7.22;;;2.78;;
32445;SDS011;18899;50.748;7.102;2023-02-28T04:32:24;8.43;;;2.80;;
32445;SDS011;18899;50.748;7.102;2023-02-28T04:34:50;5.53;;;2.47;;
32445;SDS011;18899;50.748;7.102;2023-02-28T04:37:15;5.57;;;2.60;;
32445;SDS011;18899;50.748;7.102;2023-02-28T04:39:41;5.25;;;2.50;;
32445;SDS011;18899;50.748;7.102;2023-02-28T04:42:07;8.40;;;2.30;;
32445;SDS011;18899;50.748;7.102;2023-02-28T04:44:33;4.15;;;2.40;;
32445;SDS011;18899;50.748;7.102;2023-02-28T04:46:58;7.20;;;2.35;;
32445;SDS011;18899;50.748;7.102;2023-02-28T04:49:25;7.32;;;3.00;;
32445;SDS011;18899;50.748;7.102;2023-02-28T04:51:50;5.13;;;2.40;;
32445;SDS011;18899;50.748;7.102;2023-02-28T04:54:17;7.05;;;2.65;;
32445;SDS011;18899;50.748;7.102;2023-02-28T04:56:43;7.63;;;3.10;;
32445;SDS011;18899;50.748;7.102;2023-02-28T04:59:08;6.50;;;2.35;;
32445;SDS011;18899;50.748;7.102;2023-02-28T05:01:34;5.38;;;2.90;;
32445;SDS011;18899;50.748;7.102;2023-02-28T05:04:01;9.50;;;2.75;;
32445;SDS011;18899;50.748;7.102;2023-02-28T05:06:29;6.07;;;2.40;;
32445;SDS011;18899;50.748;7.102;2023-02-28T05:08:56;4.78;;;2.58;;
32445;SDS011;18899;50.748;7.102;2023-02-28T05:11:24;5.20;;;2.67;;
32445;SDS011;18899;50.748;7.102;2023-02-28T05:13:50;6.82;;;2.95;;
32445;SDS011;18899;50.748;7.102;2023-02-28T05:16:17;6.15;;;2.58;;
32445;SDS011;18899;50.748;7.102;2023-02-28T05:18:43;4.70;;;2.72;;
32445;SDS011;18899;50.748;7.102;2023-02-28T05:21:19;4.47;;;2.33;;
32445;SDS011;18899;50.748;7.102;2023-02-28T05:23:55;6.85;;;2.40;;
32445;SDS011;18899;50.748;7.102;2023-02-28T05:26:23;6.97;;;2.75;;
32445;SDS011;18899;50.748;7.102;2023-02-28T05:28:49;5.43;;;2.45;;
32445;SDS011;18899;50.748;7.102;2023-02-28T05:31:14;7.30;;;2.88;;
32445;SDS011;18899;50.748;7.102;2023-02-28T05:33:40;5.85;;;2.47;;
32445;SDS011;18899;50.748;7.102;2023-02-28T05:36:06;5.75;;;2.60;;
32445;SDS011;18899;50.748;7.102;2023-02-28T05:38:32;7.22;;;2.80;;
32445;SDS011;18899;50.748;7.102;2023-02-28T05:40:57;4.07;;;2.40;;
32445;SDS011;18899;50.748;7.102;2023-02-28T05:43:23;4.57;;;2.50;;
32445;SDS011;18899;50.748;7.102;2023-02-28T05:45:48;11.02;;;2.70;;
32445;SDS011;18899;50.748;7.102;2023-02-28T05:48:14;7.10;;;2.38;;
32445;SDS011;18899;50.748;7.102;2023-02-28T05:50:40;5.80;;;2.05;;
32445;SDS011;18899;50.748;7.102;2023-02-28T05:53:05;3.53;;;2.28;;
32445;SDS011;18899;50.748;7.102;2023-02-28T05:55:31;8.02;;;2.28;;
32445;SDS011;18899;50.748;7.102;2023-02-28T05:57:56;7.70;;;2.10;;
32445;SDS011;18899;50.748;7.102;2023-02-28T06:00:22;6.07;;;2.15;;
32445;SDS011;18899;50.748;7.102;2023-02-28T06:02:48;4.00;;;2.33;;
32445;SDS011;18899;50.748;7.102;2023-02-28T06:05:14;6.07;;;2.42;;
32445;SDS011;18899;50.748;7.102;2023-02-28T06:07:42;6.28;;;2.35;;
32445;SDS011;18899;50.748;7.102;2023-02-28T06:10:09;8.57;;;2.65;;
32445;SDS011;18899;50.748;7.102;2023-02-28T06:12:36;3.65;;;2.42;;
32445;SDS011;18899;50.748;7.102;2023-02-28T06:15:02;9.18;;;2.53;;
32445;SDS011;18899;50.748;7.102;2023-02-28T06:17:28;5.20;;;2.58;;
32445;SDS011;18899;50.748;7.102;2023-02-28T06:19:54;4.25;;;2.38;;
32445;SDS011;18899;50.748;7.102;2023-02-28T06:22:19;9.40;;;3.15;;
32445;SDS011;18899;50.748;7.102;2023-02-28T06:24:45;6.63;;;3.63;;
32445;SDS011;18899;50.748;7.102;2023-02-28T06:27:10;6.45;;;3.28;;
32445;SDS011;18899;50.748;7.102;2023-02-28T06:29:36;7.90;;;3.70;;
32445;SDS011;18899;50.748;7.102;2023-02-28T06:32:04;10.45;;;4.07;;
32445;SDS011;18899;50.748;7.102;2023-02-28T06:34:30;10.68;;;3.80;;
32445;SDS011;18899;50.748;7.102;2023-02-28T06:36:56;8.13;;;3.53;;
32445;SDS011;18899;50.748;7.102;2023-02-28T06:39:21;8.40;;;2.88;;
32445;SDS011;18899;50.748;7.102;2023-02-28T06:41:47;5.47;;;2.80;;
32445;SDS011;18899;50.748;7.102;2023-02-28T06:44:16;6.68;;;3.28;;
32445;SDS011;18899;50.748;7.102;2023-02-28T06:46:42;5.75;;;2.97;;
32445;SDS011;18899;50.748;7.102;2023-02-28T06:49:09;4.97;;;2.58;;
32445;SDS011;18899;50.748;7.102;2023-02-28T06:51:36;7.70;;;2.50;;
32445;SDS011;18899;50.748;7.102;2023-02-28T06:54:04;7.00;;;2.97;;
32445;SDS011;18899;50.748;7.102;2023-02-28T06:56:30;9.77;;;2.97;;
32445;SDS011;18899;50.748;7.102;2023-02-28T06:58:56;5.22;;;2.75;;
32445;SDS011;18899;50.748;7.102;2023-02-28T07:01:22;4.28;;;2.58;;
32445;SDS011;18899;50.748;7.102;2023-02-28T07:03:48;6.13;;;2.60;;
32445;SDS011;18899;50.748;7.102;2023-02-28T07:06:17;9.15;;;2.78;;
32445;SDS011;18899;50.748;7.102;2023-02-28T07:08:43;7.38;;;2.67;;
32445;SDS011;18899;50.748;7.102;2023-02-28T07:11:09;4.05;;;2.30;;
32445;SDS011;18899;50.748;7.102;2023-02-28T07:13:35;6.57;;;2.45;;
32445;SDS011;18899;50.748;7.102;2023-02-28T07:16:01;7.57;;;2.88;;
32445;SDS011;18899;50.748;7.102;2023-02-28T07:18:29;4.57;;;2.38;;
32445;SDS011;18899;50.748;7.102;2023-02-28T07:20:54;7.25;;;2.60;;
32445;SDS011;18899;50.748;7.102;2023-02-28T07:23:20;5.10;;;2.28;;
32445;SDS011;18899;50.748;7.102;2023-02-28T07:25:47;8.57;;;2.15;;
32445;SDS011;18899;50.748;7.102;2023-02-28T07:28:13;9.05;;;2.47;;
32445;SDS011;18899;50.748;7.102;2023-02-28T07:30:39;5.68;;;2.47;;
32445;SDS011;18899;50.748;7.102;2023-02-28T07:33:05;7.20;;;2.50;;
32445;SDS011;18899;50.748;7.102;2023-02-28T07:35:31;5.75;;;2.42;;
32445;SDS011;18899;50.748;7.102;2023-02-28T07:37:57;6.35;;;2.38;;
32445;SDS011;18899;50.748;7.102;2023-02-28T07:40:23;6.60;;;2.45;;
32445;SDS011;18899;50.748;7.102;2023-02-28T07:42:49;4.78;;;2.72;;
32445;SDS011;18899;50.748;7.102;2023-02-28T07:45:15;6.03;;;3.08;;
32445;SDS011;18899;50.748;7.102;2023-02-28T07:47:41;7.82;;;2.97;;
32445;SDS011;18899;50.748;7.102;2023-02-28T07:50:08;10.68;;;3.15;;
32445;SDS011;18899;50.748;7.102;2023-02-28T07:52:36;7.78;;;3.17;;
32445;SDS011;18899;50.748;7.102;2023-02-28T07:55:02;5.75;;;2.78;;
32445;SDS011;18899;50.748;7.102;2023-02-28T07:57:28;4.65;;;2.47;;
32445;SDS011;18899;50.748;7.102;2023-02-28T07:59:53;6.00;;;2.65;;
32445;SDS011;18899;50.748;7.102;2023-02-28T08:02:19;5.10;;;2.45;;
32445;SDS011;18899;50.748;7.102;2023-02-28T08:04:45;9.15;;;2.83;;
32445;SDS011;18899;50.748;7.102;2023-02-28T08:07:12;11.05;;;3.00;;
32445;SDS011;18899;50.748;7.102;2023-02-28T08:09:39;7.28;;;2.78;;
32445;SDS011;18899;50.748;7.102;2023-02-28T08:12:06;6.75;;;2.95;;
32445;SDS011;18899;50.748;7.102;2023-02-28T08:14:32;6.10;;;2.72;;
32445;SDS011;18899;50.748;7.102;2023-02-28T08:16:58;4.45;;;2.47;;
32445;SDS011;18899;50.748;7.102;2023-02-28T08:19:23;5.90;;;2.80;;
32445;SDS011;18899;50.748;7.102;2023-02-28T08:21:49;6.00;;;2.80;;
32445;SDS011;18899;50.748;7.102;2023-02-28T08:24:14;6.68;;;2.80;;
32445;SDS011;18899;50.748;7.102;2023-02-28T08:26:40;5.53;;;2.88;;
32445;SDS011;18899;50.748;7.102;2023-02-28T08:29:05;5.13;;;2.63;;
32445;SDS011;18899;50.748;7.102;2023-02-28T08:31:31;8.55;;;2.67;;
32445;SDS011;18899;50.748;7.102;2023-02-28T08:33:56;6.38;;;3.03;;
32445;SDS011;18899;50.748;7.102;2023-02-28T08:36:24;4.80;;;2.25;;
32445;SDS011;18899;50.748;7.102;2023-02-28T08:38:50;4.68;;;2.30;;
32445;SDS011;18899;50.748;7.102;2023-02-28T08:41:15;4.78;;;2.22;;
32445;SDS011;18899;50.748;7.102;2023-02-28T08:43:41;3.90;;;1.83;;
32445;SDS011;18899;50.748;7.102;2023-02-28T08:46:07;4.35;;;2.20;;
32445;SDS011;18899;50.748;7.102;2023-02-28T08:48:35;6.00;;;2.28;;
32445;SDS011;18899;50.748;7.102;2023-02-28T08:51:23;4.88;;;1.95;;
32445;SDS011;18899;50.748;7.102;2023-02-28T08:53:52;3.97;;;2.15;;
32445;SDS011;18899;50.748;7.102;2023-02-28T08:56:18;3.10;;;1.60;;
32445;SDS011;18899;50.748;7.102;2023-02-28T08:58:45;2.80;;;1.77;;
32445;SDS011;18899;50.748;7.102;2023-02-28T09:01:13;2.33;;;1.55;;
32445;SDS011;18899;50.748;7.102;2023-02-28T09:03:43;4.93;;;1.65;;
32445;SDS011;18899;50.748;7.102;2023-02-28T09:06:10;2.60;;;1.60;;
32445;SDS011;18899;50.748;7.102;2023-02-28T09:08:36;3.72;;;1.60;;
32445;SDS011;18899;50.748;7.102;2023-02-28T09:11:02;4.75;;;1.65;;
32445;SDS011;18899;50.748;7.102;2023-02-28T09:13:28;3.15;;;1.55;;
32445;SDS011;18899;50.748;7.102;2023-02-28T09:15:56;2.60;;;1.40;;
32445;SDS011;18899;50.748;7.102;2023-02-28T09:18:23;3.08;;;1.65;;
32445;SDS011;18899;50.748;7.102;2023-02-28T09:20:49;4.57;;;1.38;;
32445;SDS011;18899;50.748;7.102;2023-02-28T09:23:15;3.55;;;1.60;;
32445;SDS011;18899;50.748;7.102;2023-02-28T09:25:47;2.00;;;1.55;;
32445;SDS011;18899;50.748;7.102;2023-02-28T09:28:17;5.43;;;1.70;;
32445;SDS011;18899;50.748;7.102;2023-02-28T09:30:44;3.72;;;1.63;;
32445;SDS011;18899;50.748;7.102;2023-02-28T09:33:11;2.70;;;1.58;;
32445;SDS011;18899;50.748;7.102;2023-02-28T09:35:37;2.40;;;1.30;;
32445;SDS011;18899;50.748;7.102;2023-02-28T09:38:03;3.08;;;1.50;;
32445;SDS011;18899;50.748;7.102;2023-02-28T09:40:29;4.22;;;1.27;;
32445;SDS011;18899;50.748;7.102;2023-02-28T09:42:55;6.78;;;1.58;;
32445;SDS011;18899;50.748;7.102;2023-02-28T09:47:59;3.95;;;1.63;;
32445;SDS011;18899;50.748;7.102;2023-02-28T09:50:38;3.97;;;1.30;;
32445;SDS011;18899;50.748;7.102;2023-02-28T09:53:22;3.03;;;1.63;;
32445;SDS011;18899;50.748;7.102;2023-02-28T09:55:57;2.58;;;1.38;;
32445;SDS011;18899;50.748;7.102;2023-02-28T10:01:19;4.43;;;1.48;;
32445;SDS011;18899;50.748;7.102;2023-02-28T10:04:00;2.83;;;1.42;;
32445;SDS011;18899;50.748;7.102;2023-02-28T10:06:46;3.78;;;1.50;;
32445;SDS011;18899;50.748;7.102;2023-02-28T10:09:19;4.85;;;1.17;;
32445;SDS011;18899;50.748;7.102;2023-02-28T10:11:52;4.05;;;1.30;;
32445;SDS011;18899;50.748;7.102;2023-02-28T10:14:22;3.83;;;1.40;;
32445;SDS011;18899;50.748;7.102;2023-02-28T10:16:52;4.88;;;1.48;;
32445;SDS011;18899;50.748;7.102;2023-02-28T10:19:28;1.77;;;1.00;;
32445;SDS011;18899;50.748;7.102;2023-02-28T10:24:45;1.83;;;1.08;;
32445;SDS011;18899;50.748;7.102;2023-02-28T10:27:15;1.75;;;1.10;;
32445;SDS011;18899;50.748;7.102;2023-02-28T10:29:43;2.08;;;1.10;;
32445;SDS011;18899;50.748;7.102;2023-02-28T10:32:15;2.70;;;1.58;;
32445;SDS011;18899;50.748;7.102;2023-02-28T10:34:43;2.80;;;1.60;;
32445;SDS011;18899;50.748;7.102;2023-02-28T10:37:10;2.33;;;1.40;;
32445;SDS011;18899;50.748;7.102;2023-02-28T10:42:04;3.90;;;1.88;;
32445;SDS011;18899;50.748;7.102;2023-02-28T10:44:42;3.97;;;1.77;;
32445;SDS011;18899;50.748;7.102;2023-02-28T10:47:13;2.70;;;1.20;;
32445;SDS011;18899;50.748;7.102;2023-02-28T10:49:45;6.93;;;1.80;;
32445;SDS011;18899;50.748;7.102;2023-02-28T10:52:13;3.20;;;1.80;;
32445;SDS011;18899;50.748;7.102;2023-02-28T10:55:13;3.38;;;1.42;;
32445;SDS011;18899;50.748;7.102;2023-02-28T10:57:53;2.55;;;1.77;;
32445;SDS011;18899;50.748;7.102;2023-02-28T11:00:20;2.97;;;1.45;;
32445;SDS011;18899;50.748;7.102;2023-02-28T11:02:47;5.60;;;1.17;;
32445;SDS011;18899;50.748;7.102;2023-02-28T11:05:27;3.05;;;1.67;;
32445;SDS011;18899;50.748;7.102;2023-02-28T11:10:39;3.50;;;1.27;;
32445;SDS011;18899;50.748;7.102;2023-02-28T11:13:17;3.15;;;1.48;;
32445;SDS011;18899;50.748;7.102;2023-02-28T11:15:50;2.88;;;1.40;;
32445;SDS011;18899;50.748;7.102;2023-02-28T11:18:29;2.05;;;1.20;;
32445;SDS011;18899;50.748;7.102;2023-02-28T11:21:04;4.07;;;1.35;;
32445;SDS011;18899;50.748;7.102;2023-02-28T11:23:30;2.90;;;1.92;;
32445;SDS011;18899;50.748;7.102;2023-02-28T11:26:00;3.33;;;1.55;;
32445;SDS011;18899;50.748;7.102;2023-02-28T11:31:04;3.88;;;1.70;;
32445;SDS011;18899;50.748;7.102;2023-02-28T11:36:11;4.50;;;1.23;;
32445;SDS011;18899;50.748;7.102;2023-02-28T11:38:39;3.47;;;1.75;;
32445;SDS011;18899;50.748;7.102;2023-02-28T11:41:16;4.85;;;1.88;;
32445;SDS011;18899;50.748;7.102;2023-02-28T11:46:41;3.90;;;1.65;;
32445;SDS011;18899;50.748;7.102;2023-02-28T11:55:02;6.45;;;1.77;;
32445;SDS011;18899;50.748;7.102;2023-02-28T11:57:46;5.60;;;1.85;;
32445;SDS011;18899;50.748;7.102;2023-02-28T12:00:29;5.35;;;1.67;;
32445;SDS011;18899;50.748;7.102;2023-02-28T12:03:06;3.13;;;1.70;;
32445;SDS011;18899;50.748;7.102;2023-02-28T12:08:47;3.88;;;1.73;;
32445;SDS011;18899;50.748;7.102;2023-02-28T12:11:28;6.88;;;1.63;;
32445;SDS011;18899;50.748;7.102;2023-02-28T12:14:13;3.33;;;1.90;;
32445;SDS011;18899;50.748;7.102;2023-02-28T12:22:19;3.30;;;1.73;;
32445;SDS011;18899;50.748;7.102;2023-02-28T12:27:54;2.97;;;1.67;;
32445;SDS011;18899;50.748;7.102;2023-02-28T12:30:33;3.75;;;1.90;;
32445;SDS011;18899;50.748;7.102;2023-02-28T12:33:09;5.32;;;1.67;;
32445;SDS011;18899;50.748;7.102;2023-02-28T12:35:51;3.40;;;1.80;;
32445;SDS011;18899;50.748;7.102;2023-02-28T12:40:49;3.40;;;1.63;;
32445;SDS011;18899;50.748;7.102;2023-02-28T12:43:19;3.30;;;1.70;;
32445;SDS011;18899;50.748;7.102;2023-02-28T12:45:53;2.95;;;1.70;;
32445;SDS011;18899;50.748;7.102;2023-02-28T12:48:31;3.03;;;1.70;;
32445;SDS011;18899;50.748;7.102;2023-02-28T12:51:07;4.85;;;1.75;;
32445;SDS011;18899;50.748;7.102;2023-02-28T12:58:54;2.30;;;1.70;;
32445;SDS011;18899;50.748;7.102;2023-02-28T13:01:50;2.78;;;1.52;;
32445;SDS011;18899;50.748;7.102;2023-02-28T13:07:04;7.07;;;2.10;;
32445;SDS011;18899;50.748;7.102;2023-02-28T13:09:35;3.83;;;2.20;;
32445;SDS011;18899;50.748;7.102;2023-02-28T13:12:01;4.72;;;2.28;;
32445;SDS011;18899;50.748;7.102;2023-02-28T13:14:38;5.00;;;2.10;;
32445;SDS011;18899;50.748;7.102;2023-02-28T13:19:34;4.50;;;1.92;;
32445;SDS011;18899;50.748;7.102;2023-02-28T13:22:03;4.20;;;2.10;;
32445;SDS011;18899;50.748;7.102;2023-02-28T13:27:20;5.90;;;1.92;;
32445;SDS011;18899;50.748;7.102;2023-02-28T13:29:49;4.95;;;2.30;;
32445;SDS011;18899;50.748;7.102;2023-02-28T13:39:51;5.82;;;2.00;;
32445;SDS011;18899;50.748;7.102;2023-02-28T13:47:39;5.40;;;2.40;;
32445;SDS011;18899;50.748;7.102;2023-02-28T13:50:39;2.90;;;1.95;;
32445;SDS011;18899;50.748;7.102;2023-02-28T13:53:19;2.63;;;2.00;;
32445;SDS011;18899;50.748;7.102;2023-02-28T13:56:03;5.78;;;2.58;;
32445;SDS011;18899;50.748;7.102;2023-02-28T13:58:48;7.03;;;2.70;;
32445;SDS011;18899;50.748;7.102;2023-02-28T14:06:38;3.20;;;1.95;;
32445;SDS011;18899;50.748;7.102;2023-02-28T14:11:54;3.55;;;1.75;;
32445;SDS011;18899;50.748;7.102;2023-02-28T14:17:04;3.88;;;2.25;;
32445;SDS011;18899;50.748;7.102;2023-02-28T14:19:32;5.13;;;2.00;;
32445;SDS011;18899;50.748;7.102;2023-02-28T14:22:21;5.95;;;2.20;;
32445;SDS011;18899;50.748;7.102;2023-02-28T14:25:06;3.75;;;2.20;;
32445;SDS011;18899;50.748;7.102;2023-02-28T14:36:00;5.47;;;1.80;;
32445;SDS011;18899;50.748;7.102;2023-02-28T14:38:33;4.63;;;2.40;;
32445;SDS011;18899;50.748;7.102;2023-02-28T14:41:06;3.13;;;2.22;;
32445;SDS011;18899;50.748;7.102;2023-02-28T14:43:47;8.27;;;2.55;;
32445;SDS011;18899;50.748;7.102;2023-02-28T14:46:25;5.25;;;2.15;;
32445;SDS011;18899;50.748;7.102;2023-02-28T14:51:21;3.45;;;2.03;;
32445;SDS011;18899;50.748;7.102;2023-02-28T14:53:49;7.13;;;2.58;;
32445;SDS011;18899;50.748;7.102;2023-02-28T14:56:19;4.60;;;2.20;;
32445;SDS011;18899;50.748;7.102;2023-02-28T14:58:52;3.65;;;2.30;;
32445;SDS011;18899;50.748;7.102;2023-02-28T15:01:20;3.35;;;2.20;;
32445;SDS011;18899;50.748;7.102;2023-02-28T15:03:47;4.97;;;2.50;;
32445;SDS011;18899;50.748;7.102;2023-02-28T15:06:16;4.90;;;2.53;;
32445;SDS011;18899;50.748;7.102;2023-02-28T15:08:43;5.22;;;2.70;;
32445;SDS011;18899;50.748;7.102;2023-02-28T15:11:18;4.80;;;2.72;;
32445;SDS011;18899;50.748;7.102;2023-02-28T15:13:48;5.43;;;2.65;;
32445;SDS011;18899;50.748;7.102;2023-02-28T15:16:17;4.95;;;2.60;;
32445;SDS011;18899;50.748;7.102;2023-02-28T15:19:00;3.42;;;2.40;;
32445;SDS011;18899;50.748;7.102;2023-02-28T15:21:29;5.60;;;2.55;;
32445;SDS011;18899;50.748;7.102;2023-02-28T15:23:59;4.55;;;2.40;;
32445;SDS011;18899;50.748;7.102;2023-02-28T15:26:32;3.35;;;2.25;;
32445;SDS011;18899;50.748;7.102;2023-02-28T15:29:06;4.20;;;2.60;;
32445;SDS011;18899;50.748;7.102;2023-02-28T15:31:45;5.53;;;2.47;;
32445;SDS011;18899;50.748;7.102;2023-02-28T15:34:59;4.65;;;2.55;;
32445;SDS011;18899;50.748;7.102;2023-02-28T15:37:06;4.53;;;2.70;;
32445;SDS011;18899;50.748;7.102;2023-02-28T15:39:51;5.35;;;2.60;;
32445;SDS011;18899;50.748;7.102;2023-02-28T15:42:18;4.35;;;2.67;;
32445;SDS011;18899;50.748;7.102;2023-02-28T15:44:45;5.18;;;2.67;;
32445;SDS011;18899;50.748;7.102;2023-02-28T15:47:24;10.05;;;3.03;;
32445;SDS011;18899;50.748;7.102;2023-02-28T15:49:53;4.72;;;2.47;;
32445;SDS011;18899;50.748;7.102;2023-02-28T15:52:32;4.80;;;2.30;;
32445;SDS011;18899;50.748;7.102;2023-02-28T15:57:43;5.25;;;2.67;;
32445;SDS011;18899;50.748;7.102;2023-02-28T16:00:12;6.55;;;2.40;;
32445;SDS011;18899;50.748;7.102;2023-02-28T16:02:39;8.60;;;3.05;;
32445;SDS011;18899;50.748;7.102;2023-02-28T16:07:43;5.68;;;3.08;;
32445;SDS011;18899;50.748;7.102;2023-02-28T16:10:10;4.95;;;2.58;;
32445;SDS011;18899;50.748;7.102;2023-02-28T16:12:39;5.85;;;2.70;;
32445;SDS011;18899;50.748;7.102;2023-02-28T16:15:07;4.30;;;2.55;;
32445;SDS011;18899;50.748;7.102;2023-02-28T16:17:41;11.15;;;2.78;;
32445;SDS011;18899;50.748;7.102;2023-02-28T16:20:14;5.85;;;2.50;;
32445;SDS011;18899;50.748;7.102;2023-02-28T16:22:48;6.32;;;2.88;;
32445;SDS011;18899;50.748;7.102;2023-02-28T16:25:13;7.15;;;3.28;;
32445;SDS011;18899;50.748;7.102;2023-02-28T16:27:40;6.53;;;2.58;;
32445;SDS011;18899;50.748;7.102;2023-02-28T16:30:07;7.68;;;2.83;;
32445;SDS011;18899;50.748;7.102;2023-02-28T16:32:44;4.45;;;2.67;;
32445;SDS011;18899;50.748;7.102;2023-02-28T16:35:10;4.93;;;3.03;;
32445;SDS011;18899;50.748;7.102;2023-02-28T16:37:36;6.38;;;3.05;;
32445;SDS011;18899;50.748;7.102;2023-02-28T16:40:02;3.13;;;2.35;;
32445;SDS011;18899;50.748;7.102;2023-02-28T16:42:28;6.28;;;2.90;;
32445;SDS011;18899;50.748;7.102;2023-02-28T16:44:55;6.63;;;3.10;;
32445;SDS011;18899;50.748;7.102;2023-02-28T16:47:21;4.00;;;2.55;;
32445;SDS011;18899;50.748;7.102;2023-02-28T16:49:47;7.00;;;2.70;;
32445;SDS011;18899;50.748;7.102;2023-02-28T16:52:13;6.00;;;2.80;;
32445;SDS011;18899;50.748;7.102;2023-02-28T16:54:39;8.35;;;2.75;;
32445;SDS011;18899;50.748;7.102;2023-02-28T16:57:07;6.45;;;3.17;;
32445;SDS011;18899;50.748;7.102;2023-02-28T16:59:45;5.30;;;2.50;;
32445;SDS011;18899;50.748;7.102;2023-02-28T17:02:11;4.65;;;2.33;;
32445;SDS011;18899;50.748;7.102;2023-02-28T17:04:39;4.03;;;2.55;;
32445;SDS011;18899;50.748;7.102;2023-02-28T17:07:04;5.75;;;2.90;;
32445;SDS011;18899;50.748;7.102;2023-02-28T17:09:30;7.78;;;2.92;;
32445;SDS011;18899;50.748;7.102;2023-02-28T17:11:55;6.80;;;3.25;;
32445;SDS011;18899;50.748;7.102;2023-02-28T17:14:21;11.82;;;3.08;;
32445;SDS011;18899;50.748;7.102;2023-02-28T17:16:48;5.13;;;2.60;;